Citta Di Savona — IMDS — position and weather

sailwx.info

Track history (hours):
 
Tides and Currents Weather Stations Pressure Air Temp Water Temp Dewpoint Dewpoint Depression Visibility Wind Speed Wind Dir Waves Ship Positions

Citta Di Savona

Last reported at 2017-Feb-26 00:29 UTC. Time now 2017-Feb-26 00:58 UTC.
Position N 44°18' E 008°29'.

Length 31 m; draft 4.2 m.

Type: Tug. MMSI: 247402000.

Date/timePositionNaut miles runAvg speedWind from/ knotsBaromVisibWave heightAir tempDewpointWater temp
2017-Feb-26 00:29N 44°18' E 008°29'0 0.0
2017-Feb-25 23:29N 44°18' E 008°29'0 0.0
2017-Feb-25 22:33N 44°18' E 008°29'0 0.0
2017-Feb-25 14:20N 44°18' E 008°29'0 0.0
2017-Feb-25 13:32N 44°18' E 008°29'0 0.0
2017-Feb-25 12:32N 44°18' E 008°29'1 1.1
2017-Feb-25 11:33N 44°18' E 008°29'2 1.9
2017-Feb-25 10:33N 44°16' E 008°27'3 2.7
2017-Feb-25 09:30N 44°18' E 008°29'0 0.0
2017-Feb-25 08:30N 44°18' E 008°29'1 0.5
2017-Feb-25 07:30N 44°19' E 008°30'1 0.5
2017-Feb-25 06:31N 44°18' E 008°29'1 0.8
2017-Feb-25 05:28N 44°19' E 008°30'1 0.2
2017-Feb-25 01:03N 44°18' E 008°29'0 0.8
2017-Feb-25 00:33N 44°19' E 008°30'0 0.1
2017-Feb-24 23:33N 44°19' E 008°30'1 0.1
2017-Feb-24 15:25N 44°18' E 008°29'3 3.7
2017-Feb-24 14:33N 44°16' E 008°27'4 3.6
2017-Feb-24 13:33N 44°18' E 008°30'1 0.1
2017-Feb-24 08:29N 44°18' E 008°29'0 0.0
2017-Feb-24 07:29N 44°18' E 008°29'0 0.0
2017-Feb-24 06:29N 44°18' E 008°29'0 0.0
2017-Feb-24 05:29N 44°18' E 008°29'0 0.0
2017-Feb-24 04:29N 44°18' E 008°29'0 0.0
2017-Feb-24 03:29N 44°18' E 008°29'0 0.0
2017-Feb-24 02:29N 44°18' E 008°29'0 0.0
2017-Feb-24 01:29N 44°18' E 008°29'0 0.0
2017-Feb-24 00:23N 44°18' E 008°29'0 0.0
2017-Feb-23 23:29N 44°18' E 008°29'0 0.0
2017-Feb-23 22:29N 44°18' E 008°29'0 0.0
2017-Feb-23 21:29N 44°18' E 008°29'0 0.0
2017-Feb-23 20:29N 44°18' E 008°29'0 0.0
2017-Feb-23 19:29N 44°18' E 008°29'0 0.0
2017-Feb-23 18:29N 44°18' E 008°29'0 0.0
2017-Feb-23 17:29N 44°18' E 008°29'0 0.0
2017-Feb-23 16:29N 44°18' E 008°29'0 0.0
2017-Feb-23 15:29N 44°18' E 008°29'0 0.0
2017-Feb-23 14:29N 44°18' E 008°29'0 0.0
2017-Feb-23 13:23N 44°18' E 008°29'0 0.0
2017-Feb-23 05:28N 44°18' E 008°29'1 0.8
2017-Feb-23 04:29N 44°19' E 008°30'1 0.1
2017-Feb-22 18:32N 44°18' E 008°29'1 0.5
2017-Feb-22 17:33N 44°19' E 008°30'3 2.6
2017-Feb-22 16:33N 44°17' E 008°28'1 0.9
2017-Feb-22 15:33N 44°16' E 008°27'0 0.1
2017-Feb-22 14:32N 44°16' E 008°27'0 0.0
2017-Feb-22 13:32N 44°16' E 008°27'0 0.0
2017-Feb-22 12:32N 44°16' E 008°27'0 0.0
2017-Feb-22 11:32N 44°16' E 008°27'1 0.6
2017-Feb-22 10:32N 44°16' E 008°27'1 0.7
2017-Feb-22 09:30N 44°16' E 008°27'0 0.0
2017-Feb-22 08:30N 44°16' E 008°27'1 0.6
2017-Feb-22 07:30N 44°16' E 008°27'3 2.7
2017-Feb-22 06:32N 44°18' E 008°29'1 0.6
2017-Feb-22 05:33N 44°19' E 008°30'1 0.1
2017-Feb-21 22:31N 44°18' E 008°29'0 0.0
2017-Feb-21 21:31N 44°18' E 008°29'0 0.0
2017-Feb-21 20:31N 44°18' E 008°29'0 0.0
2017-Feb-21 19:31N 44°18' E 008°29'0 0.0
2017-Feb-21 18:31N 44°18' E 008°29'0 0.0
2017-Feb-21 17:31N 44°18' E 008°29'0 0.0
2017-Feb-21 16:31N 44°18' E 008°29'0 0.0
2017-Feb-21 15:19N 44°18' E 008°29'0 0.0
2017-Feb-21 14:31N 44°18' E 008°29'0 0.0
2017-Feb-21 13:31N 44°18' E 008°29'0 0.0
2017-Feb-21 09:29N 44°18' E 008°29'2 2.4
2017-Feb-21 08:33N 44°17' E 008°28'0 0.4
2017-Feb-21 07:33N 44°16' E 008°28'3 2.5
2017-Feb-21 06:30N 44°18' E 008°29'0 0.0
2017-Feb-21 05:30N 44°18' E 008°29'0 0.0
2017-Feb-20 18:32N 44°18' E 008°29'0 0.0
2017-Feb-20 17:32N 44°18' E 008°29'0 0.0
2017-Feb-20 16:32N 44°18' E 008°29'0 0.0
2017-Feb-20 15:31N 44°18' E 008°29'0 0.0
2017-Feb-20 14:31N 44°18' E 008°29'0 0.0
2017-Feb-20 13:31N 44°18' E 008°29'0 0.0
2017-Feb-20 12:31N 44°18' E 008°29'0 0.0
2017-Feb-20 11:31N 44°18' E 008°29'1 0.6
2017-Feb-20 10:30N 44°19' E 008°30'1 0.6
2017-Feb-20 09:28N 44°18' E 008°29'0 0.0
2017-Feb-20 08:22N 44°18' E 008°29'0 0.0
2017-Feb-20 07:16N 44°18' E 008°29'1 0.9
2017-Feb-20 06:31N 44°19' E 008°30'1 0.7
2017-Feb-20 05:27N 44°18' E 008°29'0 0.0
2017-Feb-20 04:33N 44°18' E 008°29'0 0.0
2017-Feb-20 03:33N 44°18' E 008°29'0 0.0
2017-Feb-20 02:33N 44°18' E 008°29'0 0.0
2017-Feb-19 22:31N 44°18' E 008°29'0 0.0
2017-Feb-19 21:31N 44°18' E 008°29'0 0.0
2017-Feb-19 20:31N 44°18' E 008°29'0 0.0
2017-Feb-19 19:31N 44°18' E 008°29'0 0.0
2017-Feb-19 18:31N 44°18' E 008°29'0 0.0
2017-Feb-19 17:31N 44°18' E 008°29'0 0.0
2017-Feb-19 16:31N 44°18' E 008°29'0 0.0
2017-Feb-19 15:31N 44°18' E 008°29'0 0.0
2017-Feb-19 14:25N 44°18' E 008°29'0 0.0
2017-Feb-19 13:19N 44°18' E 008°29'0 0.0
2017-Feb-18 13:32N 44°18' E 008°29'0 0.0
2017-Feb-18 12:26N 44°18' E 008°29'0 0.0
2017-Feb-18 11:32N 44°18' E 008°29'0 0.0
2017-Feb-18 10:32N 44°18' E 008°29'0 0.0
2017-Feb-18 09:32N 44°18' E 008°29'0 0.0
2017-Feb-18 08:26N 44°18' E 008°29'1 0.7
2017-Feb-18 07:32N 44°19' E 008°30'0 0.2
2017-Feb-18 06:28N 44°19' E 008°30'1 0.9
2017-Feb-18 05:27N 44°18' E 008°29'0 0.0
2017-Feb-18 01:31N 44°18' E 008°29'3 3.0
2017-Feb-18 00:28N 44°16' E 008°27'3 3.0
2017-Feb-17 23:25N 44°18' E 008°29'0 0.0
2017-Feb-17 22:31N 44°18' E 008°29'0 0.0
2017-Feb-17 21:31N 44°18' E 008°29'0 0.0
2017-Feb-17 20:07N 44°18' E 008°29'0 0.0
2017-Feb-17 19:31N 44°18' E 008°29'0 0.0
2017-Feb-17 18:31N 44°18' E 008°29'0 0.0
2017-Feb-17 17:31N 44°18' E 008°29'0 0.0
2017-Feb-17 16:31N 44°18' E 008°29'1 1.0
2017-Feb-17 15:33N 44°18' E 008°29'1 1.2
2017-Feb-17 14:30N 44°17' E 008°28'2 2.4
2017-Feb-17 13:33N 44°19' E 008°29'0 0.0
2017-Feb-17 08:33N 44°18' E 008°29'0 0.0
2017-Feb-17 07:33N 44°18' E 008°29'0 0.0
2017-Feb-17 06:33N 44°18' E 008°29'0 0.0
2017-Feb-17 05:33N 44°18' E 008°29'0 0.0
2017-Feb-17 04:33N 44°18' E 008°29'0 0.0
2017-Feb-17 03:33N 44°18' E 008°29'0 0.0
2017-Feb-17 02:33N 44°18' E 008°29'0 0.0
2017-Feb-17 01:33N 44°18' E 008°29'0 0.0
2017-Feb-17 00:33N 44°18' E 008°29'0 0.0
2017-Feb-16 23:33N 44°18' E 008°29'0 0.0
2017-Feb-16 22:33N 44°18' E 008°29'0 0.0
2017-Feb-16 14:07N 44°18' E 008°29'0 0.0
2017-Feb-16 13:31N 44°18' E 008°29'0 0.0
2017-Feb-16 12:31N 44°18' E 008°29'0 0.0
2017-Feb-16 11:31N 44°18' E 008°29'0 0.1
2017-Feb-16 10:33N 44°19' E 008°29'1 1.2
2017-Feb-16 09:33N 44°18' E 008°29'1 1.1
2017-Feb-16 08:33N 44°17' E 008°28'1 1.1
2017-Feb-16 07:33N 44°16' E 008°28'3 2.9
2017-Feb-16 06:31N 44°18' E 008°29'0 0.0
2017-Feb-16 05:31N 44°18' E 008°29'0 0.0
2017-Feb-16 04:31N 44°18' E 008°29'0 0.0
2017-Feb-16 03:31N 44°18' E 008°29'0 0.0
2017-Feb-16 02:31N 44°18' E 008°29'0 0.0
2017-Feb-16 01:31N 44°18' E 008°29'0 0.0
2017-Feb-16 00:31N 44°18' E 008°29'  
Track history (hours):
 
Tides and Currents Weather Stations Pressure Air Temp Water Temp Dewpoint Dewpoint Depression Visibility Wind Speed Wind Dir Waves Ship Positions

Citta Di Savona

Last reported at 2017-Feb-26 00:29 UTC. Time now 2017-Feb-26 00:58 UTC.
Position N 44°18' E 008°29'.

Length 31 m; draft 4.2 m.

Type: Tug. MMSI: 247402000.

Date/timePositionNaut miles runAvg speedWind from/ knotsBaromVisibWave heightAir tempDewpointWater temp
2017-Feb-26 00:29N 44°18' E 008°29'0 0.0
2017-Feb-25 23:29N 44°18' E 008°29'0 0.0
2017-Feb-25 22:33N 44°18' E 008°29'0 0.0
2017-Feb-25 14:20N 44°18' E 008°29'0 0.0
2017-Feb-25 13:32N 44°18' E 008°29'0 0.0
2017-Feb-25 12:32N 44°18' E 008°29'1 1.1
2017-Feb-25 11:33N 44°18' E 008°29'2 1.9
2017-Feb-25 10:33N 44°16' E 008°27'3 2.7
2017-Feb-25 09:30N 44°18' E 008°29'0 0.0
2017-Feb-25 08:30N 44°18' E 008°29'1 0.5
2017-Feb-25 07:30N 44°19' E 008°30'1 0.5
2017-Feb-25 06:31N 44°18' E 008°29'1 0.8
2017-Feb-25 05:28N 44°19' E 008°30'1 0.2
2017-Feb-25 01:03N 44°18' E 008°29'0 0.8
2017-Feb-25 00:33N 44°19' E 008°30'0 0.1
2017-Feb-24 23:33N 44°19' E 008°30'1 0.1
2017-Feb-24 15:25N 44°18' E 008°29'3 3.7
2017-Feb-24 14:33N 44°16' E 008°27'4 3.6
2017-Feb-24 13:33N 44°18' E 008°30'1 0.1
2017-Feb-24 08:29N 44°18' E 008°29'0 0.0
2017-Feb-24 07:29N 44°18' E 008°29'0 0.0
2017-Feb-24 06:29N 44°18' E 008°29'0 0.0
2017-Feb-24 05:29N 44°18' E 008°29'0 0.0
2017-Feb-24 04:29N 44°18' E 008°29'0 0.0
2017-Feb-24 03:29N 44°18' E 008°29'0 0.0
2017-Feb-24 02:29N 44°18' E 008°29'0 0.0
2017-Feb-24 01:29N 44°18' E 008°29'0 0.0
2017-Feb-24 00:23N 44°18' E 008°29'0 0.0
2017-Feb-23 23:29N 44°18' E 008°29'0 0.0
2017-Feb-23 22:29N 44°18' E 008°29'0 0.0
2017-Feb-23 21:29N 44°18' E 008°29'0 0.0
2017-Feb-23 20:29N 44°18' E 008°29'0 0.0
2017-Feb-23 19:29N 44°18' E 008°29'0 0.0
2017-Feb-23 18:29N 44°18' E 008°29'0 0.0
2017-Feb-23 17:29N 44°18' E 008°29'0 0.0
2017-Feb-23 16:29N 44°18' E 008°29'0 0.0
2017-Feb-23 15:29N 44°18' E 008°29'0 0.0
2017-Feb-23 14:29N 44°18' E 008°29'0 0.0
2017-Feb-23 13:23N 44°18' E 008°29'0 0.0
2017-Feb-23 05:28N 44°18' E 008°29'1 0.8
2017-Feb-23 04:29N 44°19' E 008°30'1 0.1
2017-Feb-22 18:32N 44°18' E 008°29'1 0.5
2017-Feb-22 17:33N 44°19' E 008°30'3 2.6
2017-Feb-22 16:33N 44°17' E 008°28'1 0.9
2017-Feb-22 15:33N 44°16' E 008°27'0 0.1
2017-Feb-22 14:32N 44°16' E 008°27'0 0.0
2017-Feb-22 13:32N 44°16' E 008°27'0 0.0
2017-Feb-22 12:32N 44°16' E 008°27'0 0.0
2017-Feb-22 11:32N 44°16' E 008°27'1 0.6
2017-Feb-22 10:32N 44°16' E 008°27'1 0.7
2017-Feb-22 09:30N 44°16' E 008°27'0 0.0
2017-Feb-22 08:30N 44°16' E 008°27'1 0.6
2017-Feb-22 07:30N 44°16' E 008°27'3 2.7
2017-Feb-22 06:32N 44°18' E 008°29'1 0.6
2017-Feb-22 05:33N 44°19' E 008°30'1 0.1
2017-Feb-21 22:31N 44°18' E 008°29'0 0.0
2017-Feb-21 21:31N 44°18' E 008°29'0 0.0
2017-Feb-21 20:31N 44°18' E 008°29'0 0.0
2017-Feb-21 19:31N 44°18' E 008°29'0 0.0
2017-Feb-21 18:31N 44°18' E 008°29'0 0.0
2017-Feb-21 17:31N 44°18' E 008°29'0 0.0
2017-Feb-21 16:31N 44°18' E 008°29'0 0.0
2017-Feb-21 15:19N 44°18' E 008°29'0 0.0
2017-Feb-21 14:31N 44°18' E 008°29'0 0.0
2017-Feb-21 13:31N 44°18' E 008°29'0 0.0
2017-Feb-21 09:29N 44°18' E 008°29'2 2.4
2017-Feb-21 08:33N 44°17' E 008°28'0 0.4
2017-Feb-21 07:33N 44°16' E 008°28'3 2.5
2017-Feb-21 06:30N 44°18' E 008°29'0 0.0
2017-Feb-21 05:30N 44°18' E 008°29'0 0.0
2017-Feb-20 18:32N 44°18' E 008°29'0 0.0
2017-Feb-20 17:32N 44°18' E 008°29'0 0.0
2017-Feb-20 16:32N 44°18' E 008°29'0 0.0
2017-Feb-20 15:31N 44°18' E 008°29'0 0.0
2017-Feb-20 14:31N 44°18' E 008°29'0 0.0
2017-Feb-20 13:31N 44°18' E 008°29'0 0.0
2017-Feb-20 12:31N 44°18' E 008°29'0 0.0
2017-Feb-20 11:31N 44°18' E 008°29'1 0.6
2017-Feb-20 10:30N 44°19' E 008°30'1 0.6
2017-Feb-20 09:28N 44°18' E 008°29'0 0.0
2017-Feb-20 08:22N 44°18' E 008°29'0 0.0
2017-Feb-20 07:16N 44°18' E 008°29'1 0.9
2017-Feb-20 06:31N 44°19' E 008°30'1 0.7
2017-Feb-20 05:27N 44°18' E 008°29'0 0.0
2017-Feb-20 04:33N 44°18' E 008°29'0 0.0
2017-Feb-20 03:33N 44°18' E 008°29'0 0.0
2017-Feb-20 02:33N 44°18' E 008°29'0 0.0
2017-Feb-19 22:31N 44°18' E 008°29'0 0.0
2017-Feb-19 21:31N 44°18' E 008°29'0 0.0
2017-Feb-19 20:31N 44°18' E 008°29'0 0.0
2017-Feb-19 19:31N 44°18' E 008°29'0 0.0
2017-Feb-19 18:31N 44°18' E 008°29'0 0.0
2017-Feb-19 17:31N 44°18' E 008°29'0 0.0
2017-Feb-19 16:31N 44°18' E 008°29'0 0.0
2017-Feb-19 15:31N 44°18' E 008°29'0 0.0
2017-Feb-19 14:25N 44°18' E 008°29'0 0.0
2017-Feb-19 13:19N 44°18' E 008°29'0 0.0
2017-Feb-18 13:32N 44°18' E 008°29'0 0.0
2017-Feb-18 12:26N 44°18' E 008°29'0 0.0
2017-Feb-18 11:32N 44°18' E 008°29'0 0.0
2017-Feb-18 10:32N 44°18' E 008°29'0 0.0
2017-Feb-18 09:32N 44°18' E 008°29'0 0.0
2017-Feb-18 08:26N 44°18' E 008°29'1 0.7
2017-Feb-18 07:32N 44°19' E 008°30'0 0.2
2017-Feb-18 06:28N 44°19' E 008°30'1 0.9
2017-Feb-18 05:27N 44°18' E 008°29'0 0.0
2017-Feb-18 01:31N 44°18' E 008°29'3 3.0
2017-Feb-18 00:28N 44°16' E 008°27'3 3.0
2017-Feb-17 23:25N 44°18' E 008°29'0 0.0
2017-Feb-17 22:31N 44°18' E 008°29'0 0.0
2017-Feb-17 21:31N 44°18' E 008°29'0 0.0
2017-Feb-17 20:07N 44°18' E 008°29'0 0.0
2017-Feb-17 19:31N 44°18' E 008°29'0 0.0
2017-Feb-17 18:31N 44°18' E 008°29'0 0.0
2017-Feb-17 17:31N 44°18' E 008°29'0 0.0
2017-Feb-17 16:31N 44°18' E 008°29'1 1.0
2017-Feb-17 15:33N 44°18' E 008°29'1 1.2
2017-Feb-17 14:30N 44°17' E 008°28'2 2.4
2017-Feb-17 13:33N 44°19' E 008°29'0 0.0
2017-Feb-17 08:33N 44°18' E 008°29'0 0.0
2017-Feb-17 07:33N 44°18' E 008°29'0 0.0
2017-Feb-17 06:33N 44°18' E 008°29'0 0.0
2017-Feb-17 05:33N 44°18' E 008°29'0 0.0
2017-Feb-17 04:33N 44°18' E 008°29'0 0.0
2017-Feb-17 03:33N 44°18' E 008°29'0 0.0
2017-Feb-17 02:33N 44°18' E 008°29'0 0.0
2017-Feb-17 01:33N 44°18' E 008°29'0 0.0
2017-Feb-17 00:33N 44°18' E 008°29'0 0.0
2017-Feb-16 23:33N 44°18' E 008°29'0 0.0
2017-Feb-16 22:33N 44°18' E 008°29'0 0.0
2017-Feb-16 14:07N 44°18' E 008°29'0 0.0
2017-Feb-16 13:31N 44°18' E 008°29'0 0.0
2017-Feb-16 12:31N 44°18' E 008°29'0 0.0
2017-Feb-16 11:31N 44°18' E 008°29'0 0.1
2017-Feb-16 10:33N 44°19' E 008°29'1 1.2
2017-Feb-16 09:33N 44°18' E 008°29'1 1.1
2017-Feb-16 08:33N 44°17' E 008°28'1 1.1
2017-Feb-16 07:33N 44°16' E 008°28'3 2.9
2017-Feb-16 06:31N 44°18' E 008°29'0 0.0
2017-Feb-16 05:31N 44°18' E 008°29'0 0.0
2017-Feb-16 04:31N 44°18' E 008°29'0 0.0
2017-Feb-16 03:31N 44°18' E 008°29'0 0.0
2017-Feb-16 02:31N 44°18' E 008°29'0 0.0
2017-Feb-16 01:31N 44°18' E 008°29'0 0.0
2017-Feb-16 00:31N 44°18' E 008°29'  

Dump ship's entire track history